sensor_id;sensor_type;location;lat;lon;timestamp;pressure;altitude;pressure_sealevel;temperature;humidity
46846;BME280;33947;46.804;134.252;2023-02-01T00:00:10;100747.22;;;-19.28;59.25
46846;BME280;33947;46.804;134.252;2023-02-01T00:03:17;100748.91;;;-18.64;58.15
46846;BME280;33947;46.804;134.252;2023-02-01T00:06:22;100750.94;;;-18.03;56.57
46846;BME280;33947;46.804;134.252;2023-02-01T00:09:28;100749.00;;;-17.68;56.01
46846;BME280;33947;46.804;134.252;2023-02-01T00:12:36;100729.66;;;-17.57;55.65
46846;BME280;33947;46.804;134.252;2023-02-01T00:15:40;100748.63;;;-17.43;56.27
46846;BME280;33947;46.804;134.252;2023-02-01T00:18:49;100746.59;;;-17.66;56.75
46846;BME280;33947;46.804;134.252;2023-02-01T00:21:56;100731.81;;;-17.81;58.18
46846;BME280;33947;46.804;134.252;2023-02-01T00:25:00;100739.19;;;-17.73;57.88
46846;BME280;33947;46.804;134.252;2023-02-01T00:28:06;100721.50;;;-17.04;56.76
46846;BME280;33947;46.804;134.252;2023-02-01T00:31:14;100740.13;;;-17.14;56.96
46846;BME280;33947;46.804;134.252;2023-02-01T00:34:47;100741.25;;;-17.69;57.78
46846;BME280;33947;46.804;134.252;2023-02-01T00:37:53;100703.50;;;-18.05;57.68
46846;BME280;33947;46.804;134.252;2023-02-01T00:41:05;100726.31;;;-17.85;57.77
46846;BME280;33947;46.804;134.252;2023-02-01T00:44:11;100743.66;;;-17.22;56.79
46846;BME280;33947;46.804;134.252;2023-02-01T00:47:17;100717.19;;;-17.05;56.51
46846;BME280;33947;46.804;134.252;2023-02-01T00:50:26;100718.44;;;-17.10;55.52
46846;BME280;33947;46.804;134.252;2023-02-01T00:53:33;100732.56;;;-17.33;54.94
46846;BME280;33947;46.804;134.252;2023-02-01T00:56:39;100733.22;;;-17.25;54.45
46846;BME280;33947;46.804;134.252;2023-02-01T00:59:46;100741.78;;;-17.63;55.90
46846;BME280;33947;46.804;134.252;2023-02-01T01:02:49;100707.00;;;-17.64;56.47
46846;BME280;33947;46.804;134.252;2023-02-01T01:05:57;100695.69;;;-17.49;56.90
46846;BME280;33947;46.804;134.252;2023-02-01T01:09:05;100765.31;;;-17.07;56.60
46846;BME280;33947;46.804;134.252;2023-02-01T01:12:12;100734.19;;;-17.14;57.04
46846;BME280;33947;46.804;134.252;2023-02-01T01:15:18;100748.78;;;-17.12;55.77
46846;BME280;33947;46.804;134.252;2023-02-01T01:18:25;100753.56;;;-17.25;57.71
46846;BME280;33947;46.804;134.252;2023-02-01T01:21:29;100762.69;;;-16.98;57.54
46846;BME280;33947;46.804;134.252;2023-02-01T01:24:37;100749.81;;;-16.39;56.77
46846;BME280;33947;46.804;134.252;2023-02-01T01:27:41;100700.63;;;-16.19;55.89
46846;BME280;33947;46.804;134.252;2023-02-01T01:30:49;100716.13;;;-15.52;53.24
46846;BME280;33947;46.804;134.252;2023-02-01T01:33:57;100747.25;;;-15.87;54.23
46846;BME280;33947;46.804;134.252;2023-02-01T01:37:05;100742.72;;;-16.33;56.66
46846;BME280;33947;46.804;134.252;2023-02-01T01:40:11;100759.19;;;-15.86;56.10
46846;BME280;33947;46.804;134.252;2023-02-01T01:43:18;100739.53;;;-15.46;55.89
46846;BME280;33947;46.804;134.252;2023-02-01T01:46:35;100750.69;;;-15.23;54.55
46846;BME280;33947;46.804;134.252;2023-02-01T01:49:48;100745.94;;;-14.86;54.54
46846;BME280;33947;46.804;134.252;2023-02-01T01:52:57;100724.16;;;-14.70;53.55
46846;BME280;33947;46.804;134.252;2023-02-01T01:56:02;100737.50;;;-14.28;52.40
46846;BME280;33947;46.804;134.252;2023-02-01T01:59:10;100737.97;;;-13.76;51.11
46846;BME280;33947;46.804;134.252;2023-02-01T02:02:17;100723.31;;;-13.55;50.39
46846;BME280;33947;46.804;134.252;2023-02-01T02:05:23;100723.72;;;-13.36;50.53
46846;BME280;33947;46.804;134.252;2023-02-01T02:08:30;100709.69;;;-13.18;49.83
46846;BME280;33947;46.804;134.252;2023-02-01T02:11:36;100727.41;;;-13.45;51.40
46846;BME280;33947;46.804;134.252;2023-02-01T02:14:42;100709.03;;;-12.66;48.76
46846;BME280;33947;46.804;134.252;2023-02-01T02:39:05;100698.72;;;-11.23;48.59
46846;BME280;33947;46.804;134.252;2023-02-01T02:50:06;100676.16;;;-10.86;47.12
46846;BME280;33947;46.804;134.252;2023-02-01T02:53:51;100675.44;;;-10.84;46.68
46846;BME280;33947;46.804;134.252;2023-02-01T02:57:21;100646.38;;;-10.98;47.37
46846;BME280;33947;46.804;134.252;2023-02-01T03:00:47;100632.41;;;-10.88;47.13
46846;BME280;33947;46.804;134.252;2023-02-01T03:04:13;100639.84;;;-10.93;48.03
46846;BME280;33947;46.804;134.252;2023-02-01T03:11:10;100674.38;;;-11.83;51.89
46846;BME280;33947;46.804;134.252;2023-02-01T03:14:20;100676.13;;;-11.69;50.33
46846;BME280;33947;46.804;134.252;2023-02-01T03:17:33;100657.03;;;-11.47;49.78
46846;BME280;33947;46.804;134.252;2023-02-01T03:20:43;100611.63;;;-11.35;49.98
46846;BME280;33947;46.804;134.252;2023-02-01T03:23:49;100656.41;;;-10.59;48.61
46846;BME280;33947;46.804;134.252;2023-02-01T03:27:02;100638.66;;;-11.40;48.55
46846;BME280;33947;46.804;134.252;2023-02-01T03:30:22;100664.63;;;-11.62;50.00
46846;BME280;33947;46.804;134.252;2023-02-01T03:33:31;100651.00;;;-11.34;49.80
46846;BME280;33947;46.804;134.252;2023-02-01T03:40:04;100656.97;;;-10.78;49.23
46846;BME280;33947;46.804;134.252;2023-02-01T03:46:59;100663.03;;;-10.63;47.56
46846;BME280;33947;46.804;134.252;2023-02-01T03:50:12;100656.16;;;-11.06;48.59
46846;BME280;33947;46.804;134.252;2023-02-01T03:53:25;100662.94;;;-10.64;47.99
46846;BME280;33947;46.804;134.252;2023-02-01T03:56:32;100663.34;;;-10.28;48.39
46846;BME280;33947;46.804;134.252;2023-02-01T03:59:44;100618.94;;;-10.10;46.73
46846;BME280;33947;46.804;134.252;2023-02-01T04:02:53;100622.06;;;-10.31;45.92
46846;BME280;33947;46.804;134.252;2023-02-01T04:05:59;100646.34;;;-9.96;46.87
46846;BME280;33947;46.804;134.252;2023-02-01T04:09:06;100629.66;;;-10.91;48.12
46846;BME280;33947;46.804;134.252;2023-02-01T04:12:12;100631.31;;;-11.07;49.88
46846;BME280;33947;46.804;134.252;2023-02-01T04:15:18;100643.16;;;-10.80;49.38
46846;BME280;33947;46.804;134.252;2023-02-01T04:18:24;100651.22;;;-10.74;49.11
46846;BME280;33947;46.804;134.252;2023-02-01T04:21:30;100619.66;;;-11.01;50.02
46846;BME280;33947;46.804;134.252;2023-02-01T04:24:36;100644.47;;;-10.13;49.91
46846;BME280;33947;46.804;134.252;2023-02-01T04:27:40;100654.09;;;-9.64;47.04
46846;BME280;33947;46.804;134.252;2023-02-01T04:30:48;100627.09;;;-9.72;46.54
46846;BME280;33947;46.804;134.252;2023-02-01T04:33:55;100648.56;;;-10.17;48.61
46846;BME280;33947;46.804;134.252;2023-02-01T04:37:03;100634.72;;;-10.34;48.65
46846;BME280;33947;46.804;134.252;2023-02-01T04:40:09;100630.53;;;-9.72;47.23
46846;BME280;33947;46.804;134.252;2023-02-01T04:43:16;100626.53;;;-9.67;48.48
46846;BME280;33947;46.804;134.252;2023-02-01T04:46:23;100647.59;;;-9.42;47.36
46846;BME280;33947;46.804;134.252;2023-02-01T04:49:28;100616.16;;;-9.68;47.56
46846;BME280;33947;46.804;134.252;2023-02-01T04:52:35;100643.66;;;-9.82;47.42
46846;BME280;33947;46.804;134.252;2023-02-01T04:55:41;100610.00;;;-10.62;48.55
46846;BME280;33947;46.804;134.252;2023-02-01T04:58:47;100636.22;;;-10.53;48.79
46846;BME280;33947;46.804;134.252;2023-02-01T05:01:52;100645.09;;;-10.18;49.67
46846;BME280;33947;46.804;134.252;2023-02-01T05:04:58;100646.69;;;-9.90;47.61
46846;BME280;33947;46.804;134.252;2023-02-01T05:08:06;100620.31;;;-10.17;48.15
46846;BME280;33947;46.804;134.252;2023-02-01T05:11:12;100636.13;;;-9.33;47.88
46846;BME280;33947;46.804;134.252;2023-02-01T05:14:36;100652.09;;;-9.23;47.18
46846;BME280;33947;46.804;134.252;2023-02-01T05:17:43;100668.56;;;-9.51;47.44
46846;BME280;33947;46.804;134.252;2023-02-01T05:20:49;100641.91;;;-10.13;48.55
46846;BME280;33947;46.804;134.252;2023-02-01T05:23:55;100617.47;;;-10.07;48.50
46846;BME280;33947;46.804;134.252;2023-02-01T05:27:25;100667.16;;;-9.76;49.37
46846;BME280;33947;46.804;134.252;2023-02-01T05:30:32;100670.28;;;-9.82;48.25
46846;BME280;33947;46.804;134.252;2023-02-01T05:33:38;100666.47;;;-9.89;49.53
46846;BME280;33947;46.804;134.252;2023-02-01T05:36:46;100673.53;;;-9.69;48.50
46846;BME280;33947;46.804;134.252;2023-02-01T05:39:52;100667.59;;;-9.68;47.91
46846;BME280;33947;46.804;134.252;2023-02-01T05:42:58;100670.63;;;-9.91;48.79
46846;BME280;33947;46.804;134.252;2023-02-01T05:46:03;100676.44;;;-9.48;47.78
46846;BME280;33947;46.804;134.252;2023-02-01T05:49:09;100673.06;;;-9.47;48.15
46846;BME280;33947;46.804;134.252;2023-02-01T05:52:15;100677.94;;;-9.67;46.99
46846;BME280;33947;46.804;134.252;2023-02-01T05:55:23;100669.03;;;-9.27;47.13
46846;BME280;33947;46.804;134.252;2023-02-01T05:58:35;100675.22;;;-9.70;46.13
46846;BME280;33947;46.804;134.252;2023-02-01T06:01:42;100670.50;;;-9.62;47.56
46846;BME280;33947;46.804;134.252;2023-02-01T06:04:46;100669.63;;;-9.63;48.09
46846;BME280;33947;46.804;134.252;2023-02-01T06:07:52;100648.81;;;-9.36;47.14
46846;BME280;33947;46.804;134.252;2023-02-01T06:11:04;100689.69;;;-8.94;46.42
46846;BME280;33947;46.804;134.252;2023-02-01T06:14:08;100694.56;;;-9.15;45.83
46846;BME280;33947;46.804;134.252;2023-02-01T06:17:16;100677.81;;;-10.00;46.46
46846;BME280;33947;46.804;134.252;2023-02-01T06:20:22;100710.41;;;-9.54;48.00
46846;BME280;33947;46.804;134.252;2023-02-01T06:23:30;100721.75;;;-9.50;46.31
46846;BME280;33947;46.804;134.252;2023-02-01T06:26:37;100678.69;;;-9.99;45.80
46846;BME280;33947;46.804;134.252;2023-02-01T06:29:44;100726.88;;;-9.35;46.93
46846;BME280;33947;46.804;134.252;2023-02-01T06:32:51;100724.25;;;-9.97;45.68
46846;BME280;33947;46.804;134.252;2023-02-01T06:36:01;100737.81;;;-10.28;45.70
46846;BME280;33947;46.804;134.252;2023-02-01T06:39:07;100689.78;;;-10.87;45.19
46846;BME280;33947;46.804;134.252;2023-02-01T06:42:14;100754.78;;;-10.73;45.57
46846;BME280;33947;46.804;134.252;2023-02-01T06:45:19;100734.97;;;-10.89;45.99
46846;BME280;33947;46.804;134.252;2023-02-01T06:48:25;100704.97;;;-10.91;47.46
46846;BME280;33947;46.804;134.252;2023-02-01T06:51:33;100747.63;;;-10.36;46.71
46846;BME280;33947;46.804;134.252;2023-02-01T06:54:38;100743.50;;;-10.19;46.25
46846;BME280;33947;46.804;134.252;2023-02-01T07:01:23;100774.91;;;-10.38;45.97
46846;BME280;33947;46.804;134.252;2023-02-01T07:04:28;100784.16;;;-10.41;46.36
46846;BME280;33947;46.804;134.252;2023-02-01T07:07:35;100792.78;;;-10.54;44.86
46846;BME280;33947;46.804;134.252;2023-02-01T07:10:41;100791.91;;;-10.82;45.11
46846;BME280;33947;46.804;134.252;2023-02-01T07:13:47;100794.16;;;-10.73;46.23
46846;BME280;33947;46.804;134.252;2023-02-01T07:16:52;100780.69;;;-10.97;45.53
46846;BME280;33947;46.804;134.252;2023-02-01T07:19:57;100789.41;;;-11.61;44.34
46846;BME280;33947;46.804;134.252;2023-02-01T07:23:12;100798.63;;;-11.77;46.72
46846;BME280;33947;46.804;134.252;2023-02-01T07:26:18;100799.91;;;-11.83;45.88
46846;BME280;33947;46.804;134.252;2023-02-01T07:29:24;100803.94;;;-12.00;46.05
46846;BME280;33947;46.804;134.252;2023-02-01T07:32:30;100789.69;;;-12.34;46.08
46846;BME280;33947;46.804;134.252;2023-02-01T07:35:37;100770.84;;;-12.23;47.00
46846;BME280;33947;46.804;134.252;2023-02-01T07:38:42;100808.34;;;-12.23;45.56
46846;BME280;33947;46.804;134.252;2023-02-01T07:41:48;100811.47;;;-12.27;45.51
46846;BME280;33947;46.804;134.252;2023-02-01T07:44:54;100812.09;;;-12.43;46.66
46846;BME280;33947;46.804;134.252;2023-02-01T07:48:00;100822.66;;;-12.39;46.46
46846;BME280;33947;46.804;134.252;2023-02-01T07:51:11;100809.75;;;-12.52;46.94
46846;BME280;33947;46.804;134.252;2023-02-01T07:54:16;100803.28;;;-12.84;46.58
46846;BME280;33947;46.804;134.252;2023-02-01T07:57:24;100805.16;;;-12.82;46.95
46846;BME280;33947;46.804;134.252;2023-02-01T08:04:13;100811.72;;;-13.21;46.95
46846;BME280;33947;46.804;134.252;2023-02-01T08:07:18;100843.84;;;-13.13;46.46
46846;BME280;33947;46.804;134.252;2023-02-01T08:10:25;100857.00;;;-13.44;46.86
46846;BME280;33947;46.804;134.252;2023-02-01T08:13:36;100835.75;;;-13.55;47.47
46846;BME280;33947;46.804;134.252;2023-02-01T08:16:41;100843.06;;;-13.59;47.16
46846;BME280;33947;46.804;134.252;2023-02-01T08:19:47;100862.97;;;-13.43;47.04
46846;BME280;33947;46.804;134.252;2023-02-01T08:22:54;100878.72;;;-13.49;47.17
46846;BME280;33947;46.804;134.252;2023-02-01T08:26:16;100872.72;;;-13.61;47.42
46846;BME280;33947;46.804;134.252;2023-02-01T08:29:24;100846.75;;;-13.90;47.24
46846;BME280;33947;46.804;134.252;2023-02-01T08:32:33;100861.38;;;-13.99;47.28
46846;BME280;33947;46.804;134.252;2023-02-01T08:35:38;100870.91;;;-13.97;46.85
46846;BME280;33947;46.804;134.252;2023-02-01T08:38:49;100891.47;;;-14.17;47.58
46846;BME280;33947;46.804;134.252;2023-02-01T08:41:55;100870.06;;;-14.52;47.69
46846;BME280;33947;46.804;134.252;2023-02-01T08:45:21;100896.47;;;-14.74;47.89
46846;BME280;33947;46.804;134.252;2023-02-01T08:48:28;100885.19;;;-15.08;48.00
46846;BME280;33947;46.804;134.252;2023-02-01T08:51:35;100909.13;;;-14.96;48.45
46846;BME280;33947;46.804;134.252;2023-02-01T08:54:40;100879.22;;;-15.09;48.68
46846;BME280;33947;46.804;134.252;2023-02-01T08:57:47;100915.50;;;-15.11;48.21
46846;BME280;33947;46.804;134.252;2023-02-01T09:00:53;100893.09;;;-15.78;48.64
46846;BME280;33947;46.804;134.252;2023-02-01T09:03:58;100924.66;;;-15.86;49.29
46846;BME280;33947;46.804;134.252;2023-02-01T09:07:05;100920.59;;;-16.05;50.26
46846;BME280;33947;46.804;134.252;2023-02-01T09:10:10;100930.25;;;-16.40;50.81
46846;BME280;33947;46.804;134.252;2023-02-01T09:13:17;100933.19;;;-16.46;50.40
46846;BME280;33947;46.804;134.252;2023-02-01T09:16:24;100928.72;;;-16.38;50.56
46846;BME280;33947;46.804;134.252;2023-02-01T09:19:31;100937.38;;;-16.36;51.09
46846;BME280;33947;46.804;134.252;2023-02-01T09:22:38;100946.72;;;-16.56;51.39
46846;BME280;33947;46.804;134.252;2023-02-01T09:25:44;100898.03;;;-16.80;51.59
46846;BME280;33947;46.804;134.252;2023-02-01T09:28:52;100956.53;;;-16.50;51.20
46846;BME280;33947;46.804;134.252;2023-02-01T09:31:59;100948.53;;;-16.45;51.25
46846;BME280;33947;46.804;134.252;2023-02-01T09:35:08;100966.81;;;-16.30;50.80
46846;BME280;33947;46.804;134.252;2023-02-01T09:38:14;100949.59;;;-16.62;51.51
46846;BME280;33947;46.804;134.252;2023-02-01T09:45:14;100962.28;;;-16.72;52.52
46846;BME280;33947;46.804;134.252;2023-02-01T09:48:29;100974.00;;;-16.83;52.99
46846;BME280;33947;46.804;134.252;2023-02-01T09:51:41;100881.72;;;-17.41;52.25
46846;BME280;33947;46.804;134.252;2023-02-01T09:55:11;100973.31;;;-16.71;51.71
46846;BME280;33947;46.804;134.252;2023-02-01T10:01:40;100976.50;;;-16.74;52.21
46846;BME280;33947;46.804;134.252;2023-02-01T10:04:48;100978.72;;;-16.39;51.29
46846;BME280;33947;46.804;134.252;2023-02-01T10:08:09;100938.56;;;-16.33;50.02
46846;BME280;33947;46.804;134.252;2023-02-01T10:22:01;100981.91;;;-16.80;50.29
46846;BME280;33947;46.804;134.252;2023-02-01T10:25:32;100989.75;;;-16.87;49.77
46846;BME280;33947;46.804;134.252;2023-02-01T10:28:43;100977.66;;;-17.09;50.21
46846;BME280;33947;46.804;134.252;2023-02-01T10:31:51;100904.41;;;-18.17;49.98
46846;BME280;33947;46.804;134.252;2023-02-01T10:35:49;100992.63;;;-17.59;51.50
46846;BME280;33947;46.804;134.252;2023-02-01T10:38:30;100916.75;;;-18.57;51.23
46846;BME280;33947;46.804;134.252;2023-02-01T10:41:39;100998.38;;;-18.16;52.37
46846;BME280;33947;46.804;134.252;2023-02-01T10:44:46;100970.41;;;-18.61;52.44
46846;BME280;33947;46.804;134.252;2023-02-01T10:47:55;100989.66;;;-18.55;54.01
46846;BME280;33947;46.804;134.252;2023-02-01T10:51:21;100995.09;;;-18.24;53.56
46846;BME280;33947;46.804;134.252;2023-02-01T10:54:34;101000.22;;;-18.41;54.83
46846;BME280;33947;46.804;134.252;2023-02-01T10:57:56;100983.16;;;-18.25;53.54
46846;BME280;33947;46.804;134.252;2023-02-01T11:01:08;100979.75;;;-18.43;53.21
46846;BME280;33947;46.804;134.252;2023-02-01T11:04:16;100987.28;;;-18.71;53.89
46846;BME280;33947;46.804;134.252;2023-02-01T11:07:26;101002.00;;;-18.49;54.15
46846;BME280;33947;46.804;134.252;2023-02-01T11:10:41;100995.66;;;-18.09;53.13
46846;BME280;33947;46.804;134.252;2023-02-01T11:14:32;101003.19;;;-18.63;54.71
46846;BME280;33947;46.804;134.252;2023-02-01T11:17:17;101006.31;;;-18.39;54.87
46846;BME280;33947;46.804;134.252;2023-02-01T11:23:44;100990.41;;;-18.91;53.98
46846;BME280;33947;46.804;134.252;2023-02-01T11:26:55;101016.00;;;-19.14;54.86
46846;BME280;33947;46.804;134.252;2023-02-01T11:30:03;101010.19;;;-19.13;55.04
46846;BME280;33947;46.804;134.252;2023-02-01T11:33:17;101036.28;;;-19.05;54.46
46846;BME280;33947;46.804;134.252;2023-02-01T11:36:30;101048.50;;;-18.93;53.50
46846;BME280;33947;46.804;134.252;2023-02-01T11:39:38;101033.00;;;-19.04;53.98
46846;BME280;33947;46.804;134.252;2023-02-01T11:46:17;101044.59;;;-19.15;55.47
46846;BME280;33947;46.804;134.252;2023-02-01T11:49:29;101045.66;;;-18.96;55.59
46846;BME280;33947;46.804;134.252;2023-02-01T11:56:15;101048.31;;;-18.94;52.89
46846;BME280;33947;46.804;134.252;2023-02-01T12:17:00;101043.06;;;-20.32;54.16
46846;BME280;33947;46.804;134.252;2023-02-01T12:24:02;101093.22;;;-20.60;56.41
46846;BME280;33947;46.804;134.252;2023-02-01T12:27:42;101082.84;;;-20.22;55.42
46846;BME280;33947;46.804;134.252;2023-02-01T12:37:23;101086.06;;;-20.07;53.55
46846;BME280;33947;46.804;134.252;2023-02-01T12:40:43;101077.00;;;-20.46;55.62
46846;BME280;33947;46.804;134.252;2023-02-01T12:44:02;101080.16;;;-20.24;55.85
46846;BME280;33947;46.804;134.252;2023-02-01T12:47:21;101059.81;;;-19.91;55.70
46846;BME280;33947;46.804;134.252;2023-02-01T12:50:52;101099.31;;;-19.42;54.29
46846;BME280;33947;46.804;134.252;2023-02-01T12:54:35;101096.97;;;-19.32;53.56
46846;BME280;33947;46.804;134.252;2023-02-01T13:01:20;101004.69;;;-19.18;51.92
46846;BME280;33947;46.804;134.252;2023-02-01T13:08:11;101108.75;;;-18.37;52.04
46846;BME280;33947;46.804;134.252;2023-02-01T13:11:47;101104.50;;;-17.93;51.33
46846;BME280;33947;46.804;134.252;2023-02-01T13:14:57;101053.81;;;-18.01;50.13
46846;BME280;33947;46.804;134.252;2023-02-01T13:18:32;101062.75;;;-17.51;49.05
46846;BME280;33947;46.804;134.252;2023-02-01T13:21:43;101121.63;;;-17.55;49.03
46846;BME280;33947;46.804;134.252;2023-02-01T13:25:01;101105.38;;;-17.83;49.98
46846;BME280;33947;46.804;134.252;2023-02-01T13:28:25;101147.94;;;-17.81;49.93
46846;BME280;33947;46.804;134.252;2023-02-01T13:35:12;101142.03;;;-17.44;49.31
46846;BME280;33947;46.804;134.252;2023-02-01T13:45:03;101149.78;;;-17.43;48.59
46846;BME280;33947;46.804;134.252;2023-02-01T13:48:22;101160.28;;;-17.12;48.68
46846;BME280;33947;46.804;134.252;2023-02-01T13:51:42;101150.41;;;-17.37;48.86
46846;BME280;33947;46.804;134.252;2023-02-01T13:55:02;101159.84;;;-17.62;49.00
46846;BME280;33947;46.804;134.252;2023-02-01T13:58:33;101153.59;;;-17.66;49.01
46846;BME280;33947;46.804;134.252;2023-02-01T14:01:40;101153.44;;;-17.67;49.25
46846;BME280;33947;46.804;134.252;2023-02-01T14:04:48;101149.84;;;-17.61;49.10
46846;BME280;33947;46.804;134.252;2023-02-01T14:11:37;101141.34;;;-17.61;49.31
46846;BME280;33947;46.804;134.252;2023-02-01T14:14:43;101159.81;;;-17.44;49.08
46846;BME280;33947;46.804;134.252;2023-02-01T14:17:49;101145.63;;;-17.51;49.28
46846;BME280;33947;46.804;134.252;2023-02-01T14:24:32;101140.44;;;-17.53;48.78
46846;BME280;33947;46.804;134.252;2023-02-01T14:27:39;101074.22;;;-17.91;48.70
46846;BME280;33947;46.804;134.252;2023-02-01T14:30:43;101099.09;;;-17.69;48.54
46846;BME280;33947;46.804;134.252;2023-02-01T14:33:56;101131.31;;;-17.51;48.46
46846;BME280;33947;46.804;134.252;2023-02-01T14:37:07;101126.06;;;-17.52;48.08
46846;BME280;33947;46.804;134.252;2023-02-01T14:40:16;101132.34;;;-17.49;48.31
46846;BME280;33947;46.804;134.252;2023-02-01T14:44:27;101139.78;;;-17.41;48.06
46846;BME280;33947;46.804;134.252;2023-02-01T14:50:31;101088.72;;;-17.99;48.42
46846;BME280;33947;46.804;134.252;2023-02-01T14:53:42;101126.88;;;-17.80;48.00
46846;BME280;33947;46.804;134.252;2023-02-01T14:56:48;101136.75;;;-17.83;48.22
46846;BME280;33947;46.804;134.252;2023-02-01T15:06:45;101100.09;;;-18.66;49.79
46846;BME280;33947;46.804;134.252;2023-02-01T15:09:56;101126.72;;;-18.78;49.22
46846;BME280;33947;46.804;134.252;2023-02-01T15:13:05;101103.31;;;-19.11;49.93
46846;BME280;33947;46.804;134.252;2023-02-01T15:16:14;101104.69;;;-19.39;51.12
46846;BME280;33947;46.804;134.252;2023-02-01T15:19:23;101143.19;;;-19.17;51.37
46846;BME280;33947;46.804;134.252;2023-02-01T15:26:24;101162.78;;;-18.98;50.21
46846;BME280;33947;46.804;134.252;2023-02-01T15:29:31;101158.44;;;-18.90;50.18
46846;BME280;33947;46.804;134.252;2023-02-01T15:32:39;101150.41;;;-18.86;50.12
46846;BME280;33947;46.804;134.252;2023-02-01T15:35:50;101153.13;;;-18.85;50.18
46846;BME280;33947;46.804;134.252;2023-02-01T15:39:24;101151.31;;;-18.77;50.04
46846;BME280;33947;46.804;134.252;2023-02-01T15:42:35;101144.88;;;-19.09;49.77
46846;BME280;33947;46.804;134.252;2023-02-01T15:45:43;101150.09;;;-18.98;50.55
46846;BME280;33947;46.804;134.252;2023-02-01T15:48:52;101146.03;;;-19.14;49.64
46846;BME280;33947;46.804;134.252;2023-02-01T15:52:02;101133.34;;;-19.23;50.29
46846;BME280;33947;46.804;134.252;2023-02-01T15:55:35;101147.47;;;-18.73;50.46
46846;BME280;33947;46.804;134.252;2023-02-01T15:58:47;101118.09;;;-18.98;50.34
46846;BME280;33947;46.804;134.252;2023-02-01T16:01:55;101158.97;;;-18.59;49.75
46846;BME280;33947;46.804;134.252;2023-02-01T16:05:02;101166.16;;;-18.38;49.66
46846;BME280;33947;46.804;134.252;2023-02-01T16:08:26;101165.28;;;-18.21;49.42
46846;BME280;33947;46.804;134.252;2023-02-01T16:11:52;101183.31;;;-18.00;48.93
46846;BME280;33947;46.804;134.252;2023-02-01T16:14:59;101159.03;;;-18.07;49.27
46846;BME280;33947;46.804;134.252;2023-02-01T16:18:09;101187.78;;;-17.88;48.48
46846;BME280;33947;46.804;134.252;2023-02-01T16:21:16;101184.97;;;-18.27;48.55
46846;BME280;33947;46.804;134.252;2023-02-01T16:24:30;100915.06;;;-20.31;48.73
46846;BME280;33947;46.804;134.252;2023-02-01T16:27:37;101194.78;;;-18.48;48.69
46846;BME280;33947;46.804;134.252;2023-02-01T16:30:43;101201.78;;;-18.45;48.96
46846;BME280;33947;46.804;134.252;2023-02-01T16:33:51;101202.41;;;-18.30;48.98
46846;BME280;33947;46.804;134.252;2023-02-01T16:36:58;101157.66;;;-18.47;48.74
46846;BME280;33947;46.804;134.252;2023-02-01T16:40:13;101190.78;;;-18.37;49.07
46846;BME280;33947;46.804;134.252;2023-02-01T16:43:22;101191.66;;;-18.54;49.12
46846;BME280;33947;46.804;134.252;2023-02-01T16:46:32;101176.03;;;-19.01;49.40
46846;BME280;33947;46.804;134.252;2023-02-01T16:49:41;101191.78;;;-19.12;49.76
46846;BME280;33947;46.804;134.252;2023-02-01T16:52:50;101193.91;;;-19.33;50.57
46846;BME280;33947;46.804;134.252;2023-02-01T16:55:57;101174.19;;;-19.44;50.73
46846;BME280;33947;46.804;134.252;2023-02-01T16:59:03;101180.41;;;-20.15;51.22
46846;BME280;33947;46.804;134.252;2023-02-01T17:02:14;101206.25;;;-19.36;51.76
46846;BME280;33947;46.804;134.252;2023-02-01T17:05:21;101204.50;;;-19.53;50.67
46846;BME280;33947;46.804;134.252;2023-02-01T17:08:36;101206.88;;;-19.55;50.85
46846;BME280;33947;46.804;134.252;2023-02-01T17:11:43;101193.44;;;-19.62;51.02
46846;BME280;33947;46.804;134.252;2023-02-01T17:14:49;101201.53;;;-19.74;50.39
46846;BME280;33947;46.804;134.252;2023-02-01T17:17:55;101185.56;;;-19.82;50.29
46846;BME280;33947;46.804;134.252;2023-02-01T17:21:03;101177.97;;;-20.06;50.46
46846;BME280;33947;46.804;134.252;2023-02-01T17:24:15;101178.28;;;-20.03;50.01
46846;BME280;33947;46.804;134.252;2023-02-01T17:27:21;101175.03;;;-20.67;52.33
46846;BME280;33947;46.804;134.252;2023-02-01T17:30:25;101199.91;;;-20.30;51.12
46846;BME280;33947;46.804;134.252;2023-02-01T17:33:34;101209.84;;;-20.64;51.72
46846;BME280;33947;46.804;134.252;2023-02-01T17:36:45;101175.31;;;-20.24;52.05
46846;BME280;33947;46.804;134.252;2023-02-01T17:39:51;101204.16;;;-20.54;52.09
46846;BME280;33947;46.804;134.252;2023-02-01T17:43:00;101107.13;;;-20.88;52.15
46846;BME280;33947;46.804;134.252;2023-02-01T17:46:14;101211.59;;;-20.95;52.33
46846;BME280;33947;46.804;134.252;2023-02-01T17:49:21;101203.53;;;-21.00;53.38
46846;BME280;33947;46.804;134.252;2023-02-01T17:52:27;101206.31;;;-20.73;53.63
46846;BME280;33947;46.804;134.252;2023-02-01T17:55:36;101166.00;;;-20.48;52.84
46846;BME280;33947;46.804;134.252;2023-02-01T17:58:43;101200.66;;;-20.63;51.59
46846;BME280;33947;46.804;134.252;2023-02-01T18:01:47;101198.84;;;-20.80;52.38
46846;BME280;33947;46.804;134.252;2023-02-01T18:04:56;101143.25;;;-21.13;52.67
46846;BME280;33947;46.804;134.252;2023-02-01T18:08:01;101220.38;;;-20.36;51.09
46846;BME280;33947;46.804;134.252;2023-02-01T18:11:20;101233.03;;;-20.91;51.43
46846;BME280;33947;46.804;134.252;2023-02-01T18:14:26;101198.31;;;-21.71;52.31
46846;BME280;33947;46.804;134.252;2023-02-01T18:17:31;101203.88;;;-20.97;52.43